createdAt,value
2023-03-11T00:02:58.328Z,9.47
2023-03-11T00:06:02.608Z,9.47
2023-03-11T00:09:05.182Z,9.47
2023-03-11T00:12:08.084Z,9.39
2023-03-11T00:15:11.076Z,9.42
2023-03-11T00:18:13.880Z,9.40
2023-03-11T00:21:17.608Z,9.31
2023-03-11T00:24:20.171Z,9.40
2023-03-11T00:27:22.326Z,9.40
2023-03-11T00:30:25.580Z,9.41
2023-03-11T00:33:28.177Z,9.51
2023-03-11T00:36:36.382Z,9.49
2023-03-11T00:39:39.014Z,9.56
2023-03-11T00:42:42.039Z,9.50
2023-03-11T00:45:45.855Z,9.56
2023-03-11T00:48:51.469Z,9.57
2023-03-11T00:51:53.861Z,9.58
2023-03-11T00:54:58.768Z,9.62
2023-03-11T00:58:06.669Z,9.53
2023-03-11T01:01:11.976Z,9.52
2023-03-11T01:04:15.001Z,9.47
2023-03-11T01:07:17.520Z,9.40
2023-03-11T01:10:19.938Z,9.41
2023-03-11T01:13:22.831Z,9.37
2023-03-11T01:16:26.818Z,9.31
2023-03-11T01:19:29.366Z,9.22
2023-03-11T01:22:31.673Z,9.21
2023-03-11T01:25:34.909Z,9.13
2023-03-11T01:28:37.550Z,9.10
2023-03-11T01:31:40.193Z,9.01
2023-03-11T01:34:42.594Z,9.03
2023-03-11T01:37:46.249Z,9.01
2023-03-11T01:40:50.904Z,8.97
2023-03-11T01:43:55.281Z,8.96
2023-03-11T01:47:00.084Z,8.92
2023-03-11T01:50:07.830Z,8.93
2023-03-11T01:53:13.213Z,8.89
2023-03-11T01:56:17.169Z,8.83
2023-03-11T01:59:27.068Z,8.88
2023-03-11T02:02:35.152Z,8.88
2023-03-11T02:05:39.630Z,8.83
2023-03-11T02:08:44.695Z,8.90
2023-03-11T02:11:47.666Z,8.85
2023-03-11T02:14:54.539Z,8.90
2023-03-11T02:17:59.081Z,9.03
2023-03-11T02:21:14.034Z,8.97
2023-03-11T02:24:28.147Z,9.05
2023-03-11T02:27:35.598Z,9.08
2023-03-11T02:30:41.807Z,9.11
2023-03-11T02:33:46.561Z,9.12
2023-03-11T02:36:49.627Z,9.18
2023-03-11T02:39:55.390Z,9.14
2023-03-11T02:43:01.604Z,9.20
2023-03-11T02:46:06.516Z,9.20
2023-03-11T02:49:11.348Z,9.16
2023-03-11T02:52:13.766Z,9.26
2023-03-11T02:55:18.076Z,9.34
2023-03-11T02:58:20.382Z,9.34
2023-03-11T03:01:23.540Z,9.37
2023-03-11T03:04:26.550Z,9.39
2023-03-11T03:07:29.570Z,9.44
2023-03-11T03:10:31.858Z,9.43
2023-03-11T03:13:34.635Z,9.41
2023-03-11T03:16:37.056Z,9.39
2023-03-11T03:19:39.617Z,9.44
2023-03-11T03:22:43.000Z,9.49
2023-03-11T03:25:46.652Z,9.41
2023-03-11T03:28:49.215Z,9.47
2023-03-11T03:31:51.985Z,9.41
2023-03-11T03:34:59.163Z,9.42
2023-03-11T03:38:04.817Z,9.34
2023-03-11T03:41:07.756Z,9.31
2023-03-11T03:44:11.941Z,9.30
2023-03-11T03:47:14.614Z,9.26
2023-03-11T03:50:17.776Z,9.21
2023-03-11T03:53:21.205Z,9.13
2023-03-11T03:56:24.657Z,9.04
2023-03-11T03:59:27.495Z,8.96
2023-03-11T04:02:31.206Z,8.89
2023-03-11T04:05:35.010Z,8.78
2023-03-11T04:08:37.873Z,8.81
2023-03-11T04:11:40.511Z,8.86
2023-03-11T04:14:44.289Z,8.86
2023-03-11T04:17:47.081Z,8.78
2023-03-11T04:20:50.069Z,8.78
2023-03-11T04:23:52.931Z,8.73
2023-03-11T04:26:55.815Z,8.67
2023-03-11T04:29:58.586Z,8.73
2023-03-11T04:33:01.582Z,8.60
2023-03-11T04:36:07.582Z,8.57
2023-03-11T04:39:11.463Z,8.50
2023-03-11T04:42:15.259Z,8.44
2023-03-11T04:45:18.526Z,8.38
2023-03-11T04:48:22.096Z,8.14
2023-03-11T04:51:25.724Z,8.12
2023-03-11T04:54:28.613Z,7.92
2023-03-11T04:57:30.977Z,7.92
2023-03-11T05:00:33.935Z,7.88
2023-03-11T05:03:37.074Z,7.91
2023-03-11T05:06:40.497Z,7.88
2023-03-11T05:09:44.133Z,7.74
2023-03-11T05:12:49.305Z,7.55
2023-03-11T05:15:52.441Z,7.52
2023-03-11T05:18:56.000Z,7.14
2023-03-11T05:21:59.109Z,7.13
2023-03-11T05:25:02.304Z,6.99
2023-03-11T05:28:05.419Z,6.85
2023-03-11T05:31:12.293Z,6.96
2023-03-11T05:34:16.274Z,6.88
2023-03-11T05:37:19.626Z,6.83
2023-03-11T05:40:22.724Z,6.96
2023-03-11T05:43:25.793Z,6.98
2023-03-11T05:46:29.482Z,6.87
2023-03-11T05:49:33.348Z,6.82
2023-03-11T05:52:36.097Z,6.84
2023-03-11T05:55:39.163Z,6.69
2023-03-11T05:58:42.923Z,6.66
2023-03-11T06:01:46.058Z,6.58
2023-03-11T06:04:49.797Z,6.63
2023-03-11T06:07:53.206Z,6.68
2023-03-11T06:11:06.134Z,6.68
2023-03-11T06:14:13.698Z,6.87
2023-03-11T06:17:18.045Z,6.93
2023-03-11T06:20:21.135Z,7.02
2023-03-11T06:23:24.435Z,6.99
2023-03-11T06:26:27.109Z,6.85
2023-03-11T06:29:30.458Z,6.89
2023-03-11T06:32:34.776Z,7.18
2023-03-11T06:35:37.545Z,7.08
2023-03-11T06:38:40.637Z,7.03
2023-03-11T06:41:43.591Z,7.00
2023-03-11T06:44:49.793Z,6.93
2023-03-11T06:47:52.767Z,7.09
2023-03-11T06:51:02.122Z,7.22
2023-03-11T06:54:05.407Z,7.23
2023-03-11T06:57:08.787Z,7.17
2023-03-11T07:00:13.675Z,7.24
2023-03-11T07:03:16.781Z,7.09
2023-03-11T07:06:23.174Z,7.18
2023-03-11T07:09:27.783Z,7.16
2023-03-11T07:12:31.928Z,6.95
2023-03-11T07:15:35.526Z,6.72
2023-03-11T07:18:38.805Z,6.70
2023-03-11T07:21:42.410Z,6.39
2023-03-11T07:24:47.451Z,6.13
2023-03-11T07:27:50.442Z,6.11
2023-03-11T07:30:53.555Z,5.85
2023-03-11T07:33:58.846Z,6.05
2023-03-11T07:37:02.424Z,5.90
2023-03-11T07:40:05.397Z,5.87
2023-03-11T07:43:08.729Z,5.94
2023-03-11T07:46:16.594Z,6.03
2023-03-11T07:49:20.059Z,6.31
2023-03-11T07:52:22.675Z,6.52
2023-03-11T07:55:26.377Z,6.60
2023-03-11T07:58:29.374Z,6.83
2023-03-11T08:01:36.829Z,6.63
2023-03-11T08:04:39.689Z,6.78
2023-03-11T08:07:41.995Z,7.23
2023-03-11T08:10:45.003Z,7.16
2023-03-11T08:13:48.085Z,7.31
2023-03-11T08:16:50.798Z,7.48
2023-03-11T08:19:53.303Z,7.92
2023-03-11T08:22:58.299Z,7.77
2023-03-11T08:26:05.151Z,8.13
2023-03-11T08:29:08.960Z,8.39
2023-03-11T08:32:11.457Z,8.18
2023-03-11T08:35:14.412Z,8.03
2023-03-11T08:38:16.788Z,8.19
2023-03-11T08:41:19.838Z,7.80
2023-03-11T08:44:22.144Z,7.54
2023-03-11T08:47:24.872Z,7.58
2023-03-11T08:50:27.505Z,7.93
2023-03-11T08:53:30.135Z,8.00
2023-03-11T08:56:32.415Z,7.86
2023-03-11T08:59:36.187Z,7.71
2023-03-11T09:02:38.580Z,7.95
2023-03-11T09:05:41.455Z,7.94
2023-03-11T09:08:45.166Z,7.55
2023-03-11T09:11:49.010Z,7.73
2023-03-11T09:14:51.185Z,8.03
2023-03-11T09:17:54.387Z,8.33
2023-03-11T09:20:58.433Z,8.55
2023-03-11T09:24:01.426Z,8.48
2023-03-11T09:27:04.207Z,8.40
2023-03-11T09:30:07.821Z,8.95
2023-03-11T09:33:10.381Z,8.71
2023-03-11T09:36:19.520Z,8.62
2023-03-11T09:39:22.109Z,8.13
2023-03-11T09:42:42.879Z,8.04
2023-03-11T09:45:55.189Z,7.86
2023-03-11T09:49:15.114Z,7.65
2023-03-11T09:52:32.755Z,8.07
2023-03-11T09:55:43.212Z,7.73
2023-03-11T09:58:55.452Z,7.92
2023-03-11T10:01:59.622Z,8.56
2023-03-11T10:05:17.258Z,8.81
2023-03-11T10:08:28.270Z,8.68
2023-03-11T10:12:02.595Z,8.15
2023-03-11T10:15:33.093Z,8.19
2023-03-11T10:18:39.175Z,7.53
2023-03-11T10:22:08.305Z,7.48
2023-03-11T10:25:18.265Z,7.27
2023-03-11T10:28:24.184Z,7.04
2023-03-11T10:31:40.768Z,6.74
2023-03-11T10:34:57.261Z,6.36
2023-03-11T10:38:14.801Z,6.38
2023-03-11T10:41:32.169Z,6.47
2023-03-11T10:44:40.295Z,6.52
2023-03-11T10:47:42.962Z,6.36
2023-03-11T10:51:22.611Z,6.41
2023-03-11T10:54:31.758Z,6.14
2023-03-11T10:57:38.875Z,6.16
2023-03-11T11:00:41.632Z,6.42
2023-03-11T11:03:49.202Z,6.81
2023-03-11T11:06:51.643Z,6.88
2023-03-11T11:10:19.165Z,7.21
2023-03-11T11:13:27.852Z,7.24
2023-03-11T11:16:35.285Z,7.39
2023-03-11T11:19:44.701Z,7.67
2023-03-11T11:22:51.481Z,7.85
2023-03-11T11:26:04.700Z,7.92
2023-03-11T11:29:13.643Z,7.85
2023-03-11T11:32:21.332Z,8.25
2023-03-11T11:35:25.197Z,8.56
2023-03-11T11:38:30.118Z,8.64
2023-03-11T11:41:36.604Z,8.88
2023-03-11T11:44:40.142Z,9.04
2023-03-11T11:47:54.022Z,9.06
2023-03-11T11:51:01.138Z,9.16
2023-03-11T11:54:15.380Z,9.01
2023-03-11T11:57:21.180Z,8.87
2023-03-11T12:01:09.220Z,8.81
2023-03-11T12:04:44.995Z,8.83
2023-03-11T12:08:25.074Z,8.62
2023-03-11T12:11:34.232Z,7.97
2023-03-11T12:14:48.740Z,7.89
2023-03-11T12:17:54.745Z,7.72
2023-03-11T12:20:57.795Z,7.75
2023-03-11T12:24:05.792Z,8.19
2023-03-11T12:27:26.398Z,8.45
2023-03-11T12:30:36.804Z,8.50
2023-03-11T12:33:45.373Z,8.43
2023-03-11T12:36:49.142Z,7.96
2023-03-11T12:39:51.567Z,7.83
2023-03-11T12:42:54.695Z,7.77
2023-03-11T12:46:01.263Z,7.17
2023-03-11T12:49:14.996Z,7.04
2023-03-11T12:52:24.379Z,6.97
2023-03-11T12:55:34.715Z,7.39
2023-03-11T12:58:57.833Z,7.59
2023-03-11T13:02:24.222Z,8.00
2023-03-11T13:05:48.268Z,7.90
2023-03-11T13:08:54.734Z,8.07
2023-03-11T13:11:57.475Z,8.38
2023-03-11T13:15:18.707Z,8.22
2023-03-11T13:18:28.316Z,8.01
2023-03-11T13:21:34.945Z,7.72
2023-03-11T13:24:37.444Z,8.02
2023-03-11T13:27:43.819Z,7.73
2023-03-11T13:31:24.470Z,7.70
2023-03-11T13:35:04.536Z,7.97
2023-03-11T13:38:34.781Z,7.58
2023-03-11T13:41:42.653Z,7.64
2023-03-11T13:44:46.640Z,7.64
2023-03-11T13:47:49.950Z,7.63
2023-03-11T13:50:58.796Z,7.55
2023-03-11T13:54:23.168Z,7.35
2023-03-11T13:57:35.571Z,7.25
2023-03-11T14:00:48.129Z,7.20
2023-03-11T14:03:51.523Z,7.21
2023-03-11T14:06:54.198Z,7.13
2023-03-11T14:10:26.998Z,7.11
2023-03-11T14:13:38.955Z,7.20
2023-03-11T14:16:44.381Z,7.28
2023-03-11T14:20:25.383Z,7.14
2023-03-11T14:23:34.735Z,6.98
2023-03-11T14:26:37.270Z,6.89
2023-03-11T14:29:42.502Z,6.95
2023-03-11T14:32:56.080Z,7.12
2023-03-11T14:36:03.784Z,7.02
2023-03-11T14:39:30.434Z,6.78
2023-03-11T14:42:40.778Z,6.68
2023-03-11T14:45:44.020Z,6.52
2023-03-11T14:48:47.150Z,6.94
2023-03-11T14:52:01.364Z,6.81
2023-03-11T14:55:15.158Z,6.83
2023-03-11T14:58:35.879Z,6.77
2023-03-11T15:01:41.922Z,6.50
2023-03-11T15:04:44.398Z,6.36
2023-03-11T15:07:51.395Z,6.54
2023-03-11T15:11:11.327Z,6.83
2023-03-11T15:14:20.201Z,6.66
2023-03-11T15:17:35.386Z,6.59
2023-03-11T15:20:42.746Z,6.74
2023-03-11T15:23:59.344Z,6.63
2023-03-11T15:27:05.873Z,6.60
2023-03-11T15:30:31.195Z,6.55
2023-03-11T15:33:34.674Z,6.59
2023-03-11T15:36:40.073Z,6.63
2023-03-11T15:39:44.960Z,6.41
2023-03-11T15:42:48.606Z,6.08
2023-03-11T15:45:55.751Z,5.92
2023-03-11T15:48:58.826Z,6.04
2023-03-11T15:52:02.775Z,5.90
2023-03-11T15:55:06.384Z,6.04
2023-03-11T15:58:10.105Z,6.06
2023-03-11T16:01:12.616Z,5.98
2023-03-11T16:04:18.423Z,5.78
2023-03-11T16:07:36.525Z,5.82
2023-03-11T16:10:41.870Z,5.85
2023-03-11T16:13:44.435Z,5.90
2023-03-11T16:16:48.581Z,5.92
2023-03-11T16:19:50.802Z,5.91
2023-03-11T16:22:56.318Z,5.62
2023-03-11T16:26:01.938Z,5.66
2023-03-11T16:29:18.327Z,5.58
2023-03-11T16:32:21.628Z,5.44
2023-03-11T16:35:26.710Z,5.29
2023-03-11T16:38:31.008Z,5.28
2023-03-11T16:41:42.259Z,5.11
2023-03-11T16:44:44.774Z,5.10
2023-03-11T16:47:47.687Z,5.16
2023-03-11T16:50:50.906Z,4.99
2023-03-11T16:53:53.384Z,4.89
2023-03-11T16:56:55.701Z,4.81
2023-03-11T16:59:59.435Z,4.78
2023-03-11T17:03:02.048Z,4.78
2023-03-11T17:06:05.037Z,4.91
2023-03-11T17:09:07.302Z,4.80
2023-03-11T17:12:13.299Z,4.78
2023-03-11T17:15:15.781Z,4.84
2023-03-11T17:18:19.033Z,4.76
2023-03-11T17:21:21.473Z,4.90
2023-03-11T17:24:25.008Z,4.93
2023-03-11T17:27:32.110Z,5.02
2023-03-11T17:30:37.221Z,5.08
2023-03-11T17:33:40.212Z,5.12
2023-03-11T17:36:43.659Z,4.96
2023-03-11T17:39:46.219Z,4.82
2023-03-11T17:42:49.073Z,4.77
2023-03-11T17:45:52.116Z,4.80
2023-03-11T17:48:54.936Z,4.66
2023-03-11T17:51:57.157Z,4.70
2023-03-11T17:54:59.633Z,4.67
2023-03-11T17:58:02.638Z,4.67
2023-03-11T18:01:26.489Z,4.54
2023-03-11T18:04:29.584Z,4.70
2023-03-11T18:07:32.348Z,4.58
2023-03-11T18:10:35.353Z,4.54
2023-03-11T18:13:38.837Z,4.61
2023-03-11T18:16:43.066Z,4.63
2023-03-11T18:19:45.658Z,4.58
2023-03-11T18:22:48.609Z,4.49
2023-03-11T18:25:52.025Z,4.52
2023-03-11T18:28:59.685Z,4.68
2023-03-11T18:32:02.374Z,4.77
2023-03-11T18:35:06.232Z,4.83
2023-03-11T18:38:08.765Z,4.76
2023-03-11T18:41:11.922Z,4.77
2023-03-11T18:44:14.241Z,4.52
2023-03-11T18:47:17.017Z,4.57
2023-03-11T18:50:20.078Z,4.50
2023-03-11T18:53:24.978Z,4.54
2023-03-11T18:56:30.913Z,4.55
2023-03-11T18:59:34.320Z,4.50
2023-03-11T19:02:36.767Z,4.27
2023-03-11T19:05:39.315Z,4.30
2023-03-11T19:08:43.608Z,4.25
2023-03-11T19:11:47.417Z,4.28
2023-03-11T19:14:49.973Z,4.30
2023-03-11T19:18:05.844Z,4.12
2023-03-11T19:21:11.476Z,3.96
2023-03-11T19:24:14.448Z,4.05
2023-03-11T19:27:16.978Z,4.11
2023-03-11T19:30:21.193Z,4.05
2023-03-11T19:33:25.225Z,4.09
2023-03-11T19:36:28.476Z,4.05
2023-03-11T19:39:31.372Z,4.04
2023-03-11T19:42:34.768Z,3.87
2023-03-11T19:45:37.385Z,3.94
2023-03-11T19:48:40.898Z,3.79
2023-03-11T19:51:50.045Z,3.76
2023-03-11T19:54:53.534Z,3.84
2023-03-11T19:57:56.366Z,3.80
2023-03-11T20:00:59.787Z,3.66
2023-03-11T20:04:02.764Z,3.65
2023-03-11T20:07:05.736Z,3.55
2023-03-11T20:10:10.070Z,3.53
2023-03-11T20:13:13.799Z,3.45
2023-03-11T20:16:19.143Z,3.40
2023-03-11T20:19:22.267Z,3.28
2023-03-11T20:22:25.155Z,3.16
2023-03-11T20:25:29.627Z,2.95
2023-03-11T20:28:32.387Z,2.92
2023-03-11T20:31:36.418Z,2.98
2023-03-11T20:34:39.173Z,2.98
2023-03-11T20:37:44.807Z,3.07
2023-03-11T20:40:56.627Z,3.07
2023-03-11T20:43:59.154Z,3.08
2023-03-11T20:47:02.071Z,2.96
2023-03-11T20:50:05.249Z,2.94
2023-03-11T20:53:08.027Z,2.97
2023-03-11T20:56:14.633Z,2.93
2023-03-11T20:59:18.316Z,2.90
2023-03-11T21:02:21.418Z,2.79
2023-03-11T21:05:24.433Z,2.86
2023-03-11T21:08:26.928Z,2.86
2023-03-11T21:11:30.443Z,2.84
2023-03-11T21:14:32.913Z,2.72
2023-03-11T21:17:36.790Z,2.74
2023-03-11T21:20:39.500Z,2.73
2023-03-11T21:23:43.762Z,2.72
2023-03-11T21:26:46.424Z,2.68
2023-03-11T21:29:49.930Z,2.81
2023-03-11T21:32:52.783Z,2.74
2023-03-11T21:35:58.625Z,2.72
2023-03-11T21:39:03.393Z,2.62
2023-03-11T21:42:06.978Z,2.76
2023-03-11T21:45:10.079Z,2.67
2023-03-11T21:48:14.466Z,2.79
2023-03-11T21:51:21.925Z,2.72
2023-03-11T21:54:25.403Z,2.77
2023-03-11T21:57:28.528Z,2.73
2023-03-11T22:00:31.498Z,2.85
2023-03-11T22:03:36.193Z,2.75
2023-03-11T22:06:39.572Z,2.83
2023-03-11T22:09:42.195Z,2.69
2023-03-11T22:12:45.152Z,2.61
2023-03-11T22:15:48.329Z,2.69
2023-03-11T22:18:51.897Z,2.73
2023-03-11T22:21:55.388Z,2.77
2023-03-11T22:24:57.967Z,2.74
2023-03-11T22:28:01.308Z,2.80
2023-03-11T22:31:08.259Z,2.77
2023-03-11T22:34:11.297Z,2.71
2023-03-11T22:37:13.683Z,2.73
2023-03-11T22:40:16.641Z,2.75
2023-03-11T22:43:19.245Z,2.81
2023-03-11T22:46:22.708Z,2.74
2023-03-11T22:49:25.265Z,2.76
2023-03-11T22:52:27.846Z,2.65
2023-03-11T22:55:30.369Z,2.61
2023-03-11T22:58:33.218Z,2.64
2023-03-11T23:01:36.008Z,2.51
2023-03-11T23:04:38.657Z,2.51
2023-03-11T23:07:42.077Z,2.26
2023-03-11T23:10:47.753Z,2.16
2023-03-11T23:13:50.742Z,2.09
2023-03-11T23:16:53.622Z,2.06
2023-03-11T23:19:56.096Z,2.04
2023-03-11T23:22:59.505Z,2.07
2023-03-11T23:26:08.515Z,2.15
2023-03-11T23:29:12.033Z,2.20
2023-03-11T23:32:14.561Z,2.21
2023-03-11T23:35:18.232Z,2.29
2023-03-11T23:38:20.504Z,2.37
2023-03-11T23:41:23.901Z,2.24
2023-03-11T23:44:26.944Z,2.26
2023-03-11T23:47:29.883Z,2.28
2023-03-11T23:50:32.433Z,2.23
2023-03-11T23:53:36.262Z,2.40
2023-03-11T23:56:38.734Z,2.39
2023-03-11T23:59:41.213Z,2.56
